sensor_id;sensor_type;location;lat;lon;timestamp;pressure;altitude;pressure_sealevel;temperature;humidity
45991;BME280;31721;41.740;-88.000;2023-02-24T00:01:32;99531.60;;;-1.94;51.65
45991;BME280;31721;41.740;-88.000;2023-02-24T00:04:00;99536.80;;;-2.42;50.91
45991;BME280;31721;41.740;-88.000;2023-02-24T00:06:28;99538.67;;;-2.57;51.90
45991;BME280;31721;41.740;-88.000;2023-02-24T00:08:56;99550.53;;;-2.25;51.56
45991;BME280;31721;41.740;-88.000;2023-02-24T00:11:25;99565.48;;;-2.41;52.63
45991;BME280;31721;41.740;-88.000;2023-02-24T00:13:53;99572.30;;;-2.33;52.27
45991;BME280;31721;41.740;-88.000;2023-02-24T00:16:21;99572.50;;;-2.45;52.43
45991;BME280;31721;41.740;-88.000;2023-02-24T00:18:48;99581.03;;;-1.96;52.39
45991;BME280;31721;41.740;-88.000;2023-02-24T00:21:16;99596.67;;;-1.97;50.92
45991;BME280;31721;41.740;-88.000;2023-02-24T00:23:45;99593.94;;;-1.38;50.09
45991;BME280;31721;41.740;-88.000;2023-02-24T00:26:15;99608.23;;;-1.91;50.68
45991;BME280;31721;41.740;-88.000;2023-02-24T00:28:43;99615.34;;;-1.48;49.62
45991;BME280;31721;41.740;-88.000;2023-02-24T00:31:13;99615.52;;;-1.89;49.62
45991;BME280;31721;41.740;-88.000;2023-02-24T00:33:43;99627.87;;;-2.55;48.76
45991;BME280;31721;41.740;-88.000;2023-02-24T00:36:13;99628.57;;;-2.76;50.56
45991;BME280;31721;41.740;-88.000;2023-02-24T00:38:42;99630.74;;;-2.09;49.87
45991;BME280;31721;41.740;-88.000;2023-02-24T00:41:11;99639.45;;;-2.27;50.25
45991;BME280;31721;41.740;-88.000;2023-02-24T00:43:39;99643.75;;;-2.39;50.15
45991;BME280;31721;41.740;-88.000;2023-02-24T00:46:08;99646.00;;;-3.02;49.86
45991;BME280;31721;41.740;-88.000;2023-02-24T00:48:36;99650.51;;;-2.86;50.83
45991;BME280;31721;41.740;-88.000;2023-02-24T00:51:06;99649.66;;;-2.69;50.44
45991;BME280;31721;41.740;-88.000;2023-02-24T00:53:34;99659.51;;;-2.37;49.74
45991;BME280;31721;41.740;-88.000;2023-02-24T00:56:03;99670.35;;;-2.67;50.42
45991;BME280;31721;41.740;-88.000;2023-02-24T00:58:31;99682.58;;;-2.72;50.69
45991;BME280;31721;41.740;-88.000;2023-02-24T01:00:59;99692.83;;;-3.03;49.08
45991;BME280;31721;41.740;-88.000;2023-02-24T01:03:26;99700.60;;;-2.75;50.44
45991;BME280;31721;41.740;-88.000;2023-02-24T01:05:54;99704.62;;;-2.55;50.27
45991;BME280;31721;41.740;-88.000;2023-02-24T01:08:22;99712.64;;;-2.70;50.16
45991;BME280;31721;41.740;-88.000;2023-02-24T01:10:58;99725.03;;;-2.22;49.21
45991;BME280;31721;41.740;-88.000;2023-02-24T01:13:26;99726.73;;;-2.17;49.26
45991;BME280;31721;41.740;-88.000;2023-02-24T01:15:58;99740.33;;;-2.18;49.25
45991;BME280;31721;41.740;-88.000;2023-02-24T01:18:26;99744.58;;;-2.57;49.77
45991;BME280;31721;41.740;-88.000;2023-02-24T01:20:54;99754.00;;;-2.77;50.22
45991;BME280;31721;41.740;-88.000;2023-02-24T01:23:24;99755.67;;;-2.95;50.21
45991;BME280;31721;41.740;-88.000;2023-02-24T01:25:52;99769.37;;;-2.85;49.76
45991;BME280;31721;41.740;-88.000;2023-02-24T01:28:20;99782.63;;;-3.24;50.07
45991;BME280;31721;41.740;-88.000;2023-02-24T01:30:48;99797.98;;;-4.02;50.19
45991;BME280;31721;41.740;-88.000;2023-02-24T01:33:16;99805.79;;;-3.41;51.59
45991;BME280;31721;41.740;-88.000;2023-02-24T01:35:43;99811.82;;;-3.19;50.99
45991;BME280;31721;41.740;-88.000;2023-02-24T01:38:16;99838.41;;;-3.77;50.21
45991;BME280;31721;41.740;-88.000;2023-02-24T01:40:44;99832.20;;;-3.22;50.33
45991;BME280;31721;41.740;-88.000;2023-02-24T01:43:12;99841.63;;;-3.24;50.03
45991;BME280;31721;41.740;-88.000;2023-02-24T01:45:39;99844.71;;;-2.92;49.49
45991;BME280;31721;41.740;-88.000;2023-02-24T01:48:09;99852.98;;;-3.26;48.22
45991;BME280;31721;41.740;-88.000;2023-02-24T01:50:38;99846.62;;;-3.18;49.41
45991;BME280;31721;41.740;-88.000;2023-02-24T01:53:07;99850.91;;;-3.01;49.38
45991;BME280;31721;41.740;-88.000;2023-02-24T01:55:39;99864.27;;;-3.37;49.29
45991;BME280;31721;41.740;-88.000;2023-02-24T01:58:12;99865.76;;;-3.54;50.03
45991;BME280;31721;41.740;-88.000;2023-02-24T02:00:41;99886.78;;;-3.68;50.03
45991;BME280;31721;41.740;-88.000;2023-02-24T02:03:29;99893.38;;;-3.91;49.80
45991;BME280;31721;41.740;-88.000;2023-02-24T02:06:01;99910.13;;;-3.91;49.80
45991;BME280;31721;41.740;-88.000;2023-02-24T02:08:30;99915.37;;;-4.05;50.14
45991;BME280;31721;41.740;-88.000;2023-02-24T02:11:03;99934.28;;;-4.23;49.97
45991;BME280;31721;41.740;-88.000;2023-02-24T02:13:31;99940.78;;;-4.17;49.70
45991;BME280;31721;41.740;-88.000;2023-02-24T02:16:10;99955.40;;;-4.56;49.19
45991;BME280;31721;41.740;-88.000;2023-02-24T02:18:50;99963.20;;;-4.42;50.25
45991;BME280;31721;41.740;-88.000;2023-02-24T02:21:44;99970.17;;;-4.83;50.04
45991;BME280;31721;41.740;-88.000;2023-02-24T02:24:26;99987.98;;;-4.87;48.73
45991;BME280;31721;41.740;-88.000;2023-02-24T02:32:14;100001.59;;;-5.07;48.58
45991;BME280;31721;41.740;-88.000;2023-02-24T02:34:51;100002.59;;;-4.39;49.53
45991;BME280;31721;41.740;-88.000;2023-02-24T02:37:26;100010.55;;;-4.07;49.13
45991;BME280;31721;41.740;-88.000;2023-02-24T02:40:04;100005.35;;;-4.29;48.51
45991;BME280;31721;41.740;-88.000;2023-02-24T02:42:37;100010.87;;;-4.48;49.04
45991;BME280;31721;41.740;-88.000;2023-02-24T02:45:12;100014.63;;;-4.25;49.18
45991;BME280;31721;41.740;-88.000;2023-02-24T02:47:45;100023.64;;;-4.16;49.11
45991;BME280;31721;41.740;-88.000;2023-02-24T02:52:58;100023.45;;;-4.84;48.46
45991;BME280;31721;41.740;-88.000;2023-02-24T02:55:34;100029.03;;;-4.75;48.66
45991;BME280;31721;41.740;-88.000;2023-02-24T02:58:11;100031.57;;;-4.56;48.90
45991;BME280;31721;41.740;-88.000;2023-02-24T03:00:44;100050.01;;;-4.15;49.44
45991;BME280;31721;41.740;-88.000;2023-02-24T03:03:15;100047.54;;;-4.04;49.03
45991;BME280;31721;41.740;-88.000;2023-02-24T03:05:48;100057.36;;;-4.07;49.93
45991;BME280;31721;41.740;-88.000;2023-02-24T03:08:22;100072.47;;;-4.15;49.29
45991;BME280;31721;41.740;-88.000;2023-02-24T03:10:50;100070.96;;;-4.22;49.37
45991;BME280;31721;41.740;-88.000;2023-02-24T03:13:21;100074.92;;;-4.17;49.29
45991;BME280;31721;41.740;-88.000;2023-02-24T03:15:52;100080.23;;;-4.72;48.38
45991;BME280;31721;41.740;-88.000;2023-02-24T03:18:26;100087.62;;;-4.04;49.12
45991;BME280;31721;41.740;-88.000;2023-02-24T03:21:00;100092.65;;;-4.55;49.35
45991;BME280;31721;41.740;-88.000;2023-02-24T03:23:30;100097.32;;;-4.82;48.46
45991;BME280;31721;41.740;-88.000;2023-02-24T03:26:03;100108.16;;;-4.52;48.96
45991;BME280;31721;41.740;-88.000;2023-02-24T03:28:38;100106.35;;;-4.74;49.18
45991;BME280;31721;41.740;-88.000;2023-02-24T03:31:17;100112.60;;;-4.82;48.45
45991;BME280;31721;41.740;-88.000;2023-02-24T03:33:58;100125.06;;;-4.59;48.93
45991;BME280;31721;41.740;-88.000;2023-02-24T03:36:30;100126.38;;;-4.60;47.98
45991;BME280;31721;41.740;-88.000;2023-02-24T03:38:59;100133.13;;;-4.64;48.58
45991;BME280;31721;41.740;-88.000;2023-02-24T03:41:30;100141.33;;;-4.54;48.27
45991;BME280;31721;41.740;-88.000;2023-02-24T03:44:01;100142.16;;;-4.84;48.82
45991;BME280;31721;41.740;-88.000;2023-02-24T03:46:30;100144.99;;;-4.87;49.02
45991;BME280;31721;41.740;-88.000;2023-02-24T03:49:04;100159.05;;;-4.64;48.91
45991;BME280;31721;41.740;-88.000;2023-02-24T03:51:34;100158.26;;;-4.39;49.02
45991;BME280;31721;41.740;-88.000;2023-02-24T03:54:13;100164.80;;;-4.40;49.47
45991;BME280;31721;41.740;-88.000;2023-02-24T03:56:52;100169.86;;;-4.41;48.29
45991;BME280;31721;41.740;-88.000;2023-02-24T03:59:37;100186.97;;;-4.44;47.87
45991;BME280;31721;41.740;-88.000;2023-02-24T04:02:12;100185.96;;;-4.42;49.43
45991;BME280;31721;41.740;-88.000;2023-02-24T04:04:47;100189.07;;;-4.42;49.15
45991;BME280;31721;41.740;-88.000;2023-02-24T04:07:28;100199.99;;;-3.93;48.91
45991;BME280;31721;41.740;-88.000;2023-02-24T04:10:06;100199.77;;;-4.62;49.20
45991;BME280;31721;41.740;-88.000;2023-02-24T04:12:42;100212.99;;;-4.47;49.10
45991;BME280;31721;41.740;-88.000;2023-02-24T04:15:17;100217.11;;;-4.56;48.83
45991;BME280;31721;41.740;-88.000;2023-02-24T04:17:49;100234.39;;;-4.94;49.09
45991;BME280;31721;41.740;-88.000;2023-02-24T04:20:23;100246.76;;;-4.81;49.76
45991;BME280;31721;41.740;-88.000;2023-02-24T04:22:55;100240.15;;;-4.86;49.74
45991;BME280;31721;41.740;-88.000;2023-02-24T04:25:26;100240.09;;;-5.11;48.75
45991;BME280;31721;41.740;-88.000;2023-02-24T04:27:57;100252.56;;;-5.18;47.90
45991;BME280;31721;41.740;-88.000;2023-02-24T04:30:30;100255.13;;;-5.11;48.41
45991;BME280;31721;41.740;-88.000;2023-02-24T04:33:02;100268.69;;;-5.52;48.71
45991;BME280;31721;41.740;-88.000;2023-02-24T04:35:30;100273.99;;;-5.34;49.81
45991;BME280;31721;41.740;-88.000;2023-02-24T04:37:58;100272.84;;;-5.62;49.06
45991;BME280;31721;41.740;-88.000;2023-02-24T04:40:27;100278.22;;;-5.20;49.81
45991;BME280;31721;41.740;-88.000;2023-02-24T04:42:54;100283.26;;;-5.83;48.78
45991;BME280;31721;41.740;-88.000;2023-02-24T04:45:24;100293.61;;;-5.58;48.34
45991;BME280;31721;41.740;-88.000;2023-02-24T04:47:55;100294.59;;;-5.73;48.37
45991;BME280;31721;41.740;-88.000;2023-02-24T04:50:25;100306.59;;;-5.83;48.57
45991;BME280;31721;41.740;-88.000;2023-02-24T04:52:55;100304.01;;;-5.60;48.64
45991;BME280;31721;41.740;-88.000;2023-02-24T04:55:25;100307.82;;;-5.66;47.68
45991;BME280;31721;41.740;-88.000;2023-02-24T04:57:54;100315.38;;;-5.62;48.20
45991;BME280;31721;41.740;-88.000;2023-02-24T05:00:22;100316.42;;;-5.40;48.35
45991;BME280;31721;41.740;-88.000;2023-02-24T05:02:51;100319.14;;;-4.94;48.69
45991;BME280;31721;41.740;-88.000;2023-02-24T05:05:21;100321.50;;;-5.18;47.78
45991;BME280;31721;41.740;-88.000;2023-02-24T05:07:49;100321.58;;;-5.44;47.75
45991;BME280;31721;41.740;-88.000;2023-02-24T05:10:18;100326.42;;;-5.22;48.34
45991;BME280;31721;41.740;-88.000;2023-02-24T05:12:46;100328.68;;;-4.82;48.45
45991;BME280;31721;41.740;-88.000;2023-02-24T05:15:14;100338.08;;;-4.93;48.42
45991;BME280;31721;41.740;-88.000;2023-02-24T05:17:41;100340.21;;;-5.10;48.49
45991;BME280;31721;41.740;-88.000;2023-02-24T05:20:10;100347.21;;;-5.43;48.32
45991;BME280;31721;41.740;-88.000;2023-02-24T05:22:38;100347.76;;;-5.50;47.12
45991;BME280;31721;41.740;-88.000;2023-02-24T05:25:07;100357.25;;;-5.06;48.71
45991;BME280;31721;41.740;-88.000;2023-02-24T05:27:34;100365.31;;;-4.95;47.97
45991;BME280;31721;41.740;-88.000;2023-02-24T05:30:03;100365.76;;;-5.87;45.84
45991;BME280;31721;41.740;-88.000;2023-02-24T05:32:31;100361.52;;;-5.75;47.08
45991;BME280;31721;41.740;-88.000;2023-02-24T05:34:59;100368.65;;;-5.78;47.55
45991;BME280;31721;41.740;-88.000;2023-02-24T05:37:26;100368.87;;;-5.74;46.76
45991;BME280;31721;41.740;-88.000;2023-02-24T05:39:54;100382.40;;;-5.60;47.05
45991;BME280;31721;41.740;-88.000;2023-02-24T05:42:22;100390.43;;;-5.46;47.76
45991;BME280;31721;41.740;-88.000;2023-02-24T05:44:50;100390.59;;;-5.30;47.73
45991;BME280;31721;41.740;-88.000;2023-02-24T05:47:18;100398.97;;;-5.51;47.40
45991;BME280;31721;41.740;-88.000;2023-02-24T05:49:46;100403.20;;;-5.87;46.78
45991;BME280;31721;41.740;-88.000;2023-02-24T05:52:13;100403.58;;;-6.09;46.83
45991;BME280;31721;41.740;-88.000;2023-02-24T05:54:42;100410.18;;;-5.86;47.51
45991;BME280;31721;41.740;-88.000;2023-02-24T05:57:12;100412.54;;;-6.21;46.24
45991;BME280;31721;41.740;-88.000;2023-02-24T05:59:42;100415.45;;;-5.98;47.68
45991;BME280;31721;41.740;-88.000;2023-02-24T06:02:12;100411.48;;;-6.30;46.75
45991;BME280;31721;41.740;-88.000;2023-02-24T06:04:42;100411.04;;;-6.22;46.83
45991;BME280;31721;41.740;-88.000;2023-02-24T06:07:13;100417.65;;;-6.20;47.60
45991;BME280;31721;41.740;-88.000;2023-02-24T06:09:41;100421.15;;;-6.04;47.91
45991;BME280;31721;41.740;-88.000;2023-02-24T06:12:09;100426.23;;;-5.66;48.18
45991;BME280;31721;41.740;-88.000;2023-02-24T06:14:36;100419.97;;;-5.53;48.01
45991;BME280;31721;41.740;-88.000;2023-02-24T06:17:04;100421.63;;;-5.71;46.86
45991;BME280;31721;41.740;-88.000;2023-02-24T06:19:32;100419.16;;;-6.24;47.30
45991;BME280;31721;41.740;-88.000;2023-02-24T06:22:00;100418.28;;;-6.13;47.71
45991;BME280;31721;41.740;-88.000;2023-02-24T06:24:31;100422.43;;;-6.03;47.95
45991;BME280;31721;41.740;-88.000;2023-02-24T06:26:59;100425.01;;;-6.21;47.63
45991;BME280;31721;41.740;-88.000;2023-02-24T06:29:28;100432.36;;;-5.91;48.47
45991;BME280;31721;41.740;-88.000;2023-02-24T06:31:56;100438.45;;;-5.93;48.41
45991;BME280;31721;41.740;-88.000;2023-02-24T06:34:24;100442.38;;;-5.97;47.46
45991;BME280;31721;41.740;-88.000;2023-02-24T06:36:52;100451.65;;;-5.88;48.55
45991;BME280;31721;41.740;-88.000;2023-02-24T06:39:20;100455.29;;;-5.56;48.63
45991;BME280;31721;41.740;-88.000;2023-02-24T06:41:49;100460.31;;;-5.63;48.34
45991;BME280;31721;41.740;-88.000;2023-02-24T06:44:17;100460.40;;;-5.80;48.34
45991;BME280;31721;41.740;-88.000;2023-02-24T06:46:45;100469.47;;;-5.67;47.74
45991;BME280;31721;41.740;-88.000;2023-02-24T06:49:13;100463.65;;;-5.54;48.27
45991;BME280;31721;41.740;-88.000;2023-02-24T06:51:41;100463.37;;;-5.46;48.00
45991;BME280;31721;41.740;-88.000;2023-02-24T06:54:09;100469.91;;;-5.55;48.36
45991;BME280;31721;41.740;-88.000;2023-02-24T06:56:37;100478.86;;;-5.50;48.77
45991;BME280;31721;41.740;-88.000;2023-02-24T06:59:05;100481.79;;;-5.43;48.01
45991;BME280;31721;41.740;-88.000;2023-02-24T07:01:33;100477.58;;;-6.02;47.89
45991;BME280;31721;41.740;-88.000;2023-02-24T07:04:00;100489.17;;;-5.75;48.34
45991;BME280;31721;41.740;-88.000;2023-02-24T07:06:29;100496.24;;;-5.57;48.60
45991;BME280;31721;41.740;-88.000;2023-02-24T07:08:58;100499.27;;;-5.57;48.74
45991;BME280;31721;41.740;-88.000;2023-02-24T07:11:28;100501.26;;;-5.40;48.75
45991;BME280;31721;41.740;-88.000;2023-02-24T07:13:55;100501.94;;;-5.19;48.73
45991;BME280;31721;41.740;-88.000;2023-02-24T07:16:23;100511.62;;;-5.41;48.43
45991;BME280;31721;41.740;-88.000;2023-02-24T07:18:53;100519.24;;;-5.25;48.52
45991;BME280;31721;41.740;-88.000;2023-02-24T07:21:23;100529.07;;;-5.19;48.69
45991;BME280;31721;41.740;-88.000;2023-02-24T07:23:51;100534.45;;;-5.04;48.67
45991;BME280;31721;41.740;-88.000;2023-02-24T07:26:19;100533.99;;;-5.38;47.83
45991;BME280;31721;41.740;-88.000;2023-02-24T07:28:48;100545.71;;;-5.34;48.37
45991;BME280;31721;41.740;-88.000;2023-02-24T07:31:18;100547.51;;;-5.19;48.66
45991;BME280;31721;41.740;-88.000;2023-02-24T07:33:46;100551.77;;;-5.51;48.16
45991;BME280;31721;41.740;-88.000;2023-02-24T07:36:15;100556.07;;;-5.70;48.13
45991;BME280;31721;41.740;-88.000;2023-02-24T07:38:44;100560.36;;;-5.90;48.73
45991;BME280;31721;41.740;-88.000;2023-02-24T07:41:13;100562.22;;;-5.72;49.00
45991;BME280;31721;41.740;-88.000;2023-02-24T07:43:41;100567.41;;;-5.58;48.59
45991;BME280;31721;41.740;-88.000;2023-02-24T07:46:11;100564.15;;;-5.50;48.72
45991;BME280;31721;41.740;-88.000;2023-02-24T07:48:40;100566.02;;;-5.51;48.27
45991;BME280;31721;41.740;-88.000;2023-02-24T07:51:08;100570.71;;;-5.58;48.52
45991;BME280;31721;41.740;-88.000;2023-02-24T07:53:37;100575.98;;;-5.40;48.92
45991;BME280;31721;41.740;-88.000;2023-02-24T07:56:06;100590.31;;;-5.36;48.86
45991;BME280;31721;41.740;-88.000;2023-02-24T07:58:34;100589.03;;;-5.29;48.77
45991;BME280;31721;41.740;-88.000;2023-02-24T08:01:02;100595.31;;;-5.26;48.92
45991;BME280;31721;41.740;-88.000;2023-02-24T08:03:29;100600.68;;;-5.16;49.08
45991;BME280;31721;41.740;-88.000;2023-02-24T08:05:57;100606.30;;;-5.11;49.04
45991;BME280;31721;41.740;-88.000;2023-02-24T08:08:25;100609.50;;;-5.46;48.81
45991;BME280;31721;41.740;-88.000;2023-02-24T08:10:53;100612.98;;;-5.48;49.05
45991;BME280;31721;41.740;-88.000;2023-02-24T08:13:21;100611.97;;;-5.65;48.22
45991;BME280;31721;41.740;-88.000;2023-02-24T08:15:49;100615.36;;;-5.52;49.02
45991;BME280;31721;41.740;-88.000;2023-02-24T08:18:16;100618.40;;;-5.52;49.04
45991;BME280;31721;41.740;-88.000;2023-02-24T08:20:44;100618.64;;;-5.40;49.14
45991;BME280;31721;41.740;-88.000;2023-02-24T08:23:12;100619.81;;;-5.63;48.40
45991;BME280;31721;41.740;-88.000;2023-02-24T08:25:40;100618.85;;;-5.90;48.35
45991;BME280;31721;41.740;-88.000;2023-02-24T08:28:08;100629.66;;;-5.50;49.24
45991;BME280;31721;41.740;-88.000;2023-02-24T08:30:38;100641.41;;;-5.52;48.85
45991;BME280;31721;41.740;-88.000;2023-02-24T08:33:08;100646.84;;;-5.77;48.67
45991;BME280;31721;41.740;-88.000;2023-02-24T08:35:38;100647.46;;;-5.32;48.88
45991;BME280;31721;41.740;-88.000;2023-02-24T08:38:09;100652.16;;;-6.04;48.74
45991;BME280;31721;41.740;-88.000;2023-02-24T08:40:39;100659.15;;;-5.69;48.85
45991;BME280;31721;41.740;-88.000;2023-02-24T08:43:08;100662.80;;;-5.81;48.93
45991;BME280;31721;41.740;-88.000;2023-02-24T08:45:37;100663.24;;;-6.02;48.88
45991;BME280;31721;41.740;-88.000;2023-02-24T08:48:05;100656.26;;;-6.17;49.29
45991;BME280;31721;41.740;-88.000;2023-02-24T08:50:32;100654.85;;;-6.03;49.36
45991;BME280;31721;41.740;-88.000;2023-02-24T08:53:00;100653.79;;;-6.71;49.67
45991;BME280;31721;41.740;-88.000;2023-02-24T08:55:28;100657.59;;;-7.13;50.46
45991;BME280;31721;41.740;-88.000;2023-02-24T08:57:56;100659.93;;;-7.12;50.21
45991;BME280;31721;41.740;-88.000;2023-02-24T09:00:24;100656.29;;;-6.89;50.12
45991;BME280;31721;41.740;-88.000;2023-02-24T09:02:52;100654.85;;;-6.92;49.69
45991;BME280;31721;41.740;-88.000;2023-02-24T09:05:20;100657.80;;;-7.57;50.50
45991;BME280;31721;41.740;-88.000;2023-02-24T09:07:48;100662.76;;;-7.13;50.37
45991;BME280;31721;41.740;-88.000;2023-02-24T09:10:18;100658.60;;;-7.18;50.22
45991;BME280;31721;41.740;-88.000;2023-02-24T09:12:46;100658.27;;;-6.88;50.06
45991;BME280;31721;41.740;-88.000;2023-02-24T09:15:14;100657.34;;;-6.83;49.92
45991;BME280;31721;41.740;-88.000;2023-02-24T09:17:43;100660.39;;;-6.89;49.57
45991;BME280;31721;41.740;-88.000;2023-02-24T09:20:12;100665.45;;;-6.90;49.86
45991;BME280;31721;41.740;-88.000;2023-02-24T09:22:40;100672.67;;;-6.71;49.79
45991;BME280;31721;41.740;-88.000;2023-02-24T09:25:13;100681.82;;;-7.07;50.06
45991;BME280;31721;41.740;-88.000;2023-02-24T09:27:41;100685.27;;;-6.94;49.89
45991;BME280;31721;41.740;-88.000;2023-02-24T09:30:11;100681.29;;;-6.66;49.94
45991;BME280;31721;41.740;-88.000;2023-02-24T09:32:38;100682.34;;;-6.64;49.91
45991;BME280;31721;41.740;-88.000;2023-02-24T09:35:07;100675.22;;;-7.14;50.31
45991;BME280;31721;41.740;-88.000;2023-02-24T09:37:34;100677.24;;;-7.34;50.66
45991;BME280;31721;41.740;-88.000;2023-02-24T09:40:02;100678.03;;;-7.56;50.52
45991;BME280;31721;41.740;-88.000;2023-02-24T09:42:31;100677.78;;;-7.25;50.73
45991;BME280;31721;41.740;-88.000;2023-02-24T09:45:02;100684.24;;;-7.75;50.71
45991;BME280;31721;41.740;-88.000;2023-02-24T09:47:35;100685.60;;;-7.44;50.67
45991;BME280;31721;41.740;-88.000;2023-02-24T09:50:16;100695.35;;;-7.32;50.43
45991;BME280;31721;41.740;-88.000;2023-02-24T09:52:58;100697.64;;;-7.22;50.79
45991;BME280;31721;41.740;-88.000;2023-02-24T09:55:33;100704.17;;;-7.52;50.80
45991;BME280;31721;41.740;-88.000;2023-02-24T09:58:07;100713.92;;;-7.22;50.39
45991;BME280;31721;41.740;-88.000;2023-02-24T10:00:48;100720.44;;;-7.64;50.63
45991;BME280;31721;41.740;-88.000;2023-02-24T10:03:22;100722.11;;;-7.34;50.63
45991;BME280;31721;41.740;-88.000;2023-02-24T10:05:56;100726.31;;;-7.42;50.53
45991;BME280;31721;41.740;-88.000;2023-02-24T10:08:32;100725.71;;;-7.59;50.48
45991;BME280;31721;41.740;-88.000;2023-02-24T10:11:03;100728.74;;;-7.53;50.30
45991;BME280;31721;41.740;-88.000;2023-02-24T10:13:34;100737.71;;;-7.50;50.25
45991;BME280;31721;41.740;-88.000;2023-02-24T10:16:05;100747.32;;;-7.22;50.31
45991;BME280;31721;41.740;-88.000;2023-02-24T10:18:40;100759.69;;;-7.09;50.39
45991;BME280;31721;41.740;-88.000;2023-02-24T10:21:21;100768.79;;;-7.05;50.73
45991;BME280;31721;41.740;-88.000;2023-02-24T10:24:01;100777.10;;;-7.12;50.53
45991;BME280;31721;41.740;-88.000;2023-02-24T10:26:35;100781.70;;;-7.00;50.47
45991;BME280;31721;41.740;-88.000;2023-02-24T10:29:09;100784.37;;;-6.75;50.56
45991;BME280;31721;41.740;-88.000;2023-02-24T10:31:43;100790.80;;;-7.08;50.04
45991;BME280;31721;41.740;-88.000;2023-02-24T10:34:14;100801.89;;;-6.88;50.17
45991;BME280;31721;41.740;-88.000;2023-02-24T10:36:42;100811.76;;;-6.71;50.32
45991;BME280;31721;41.740;-88.000;2023-02-24T10:39:15;100812.02;;;-6.67;50.12
45991;BME280;31721;41.740;-88.000;2023-02-24T10:41:45;100813.30;;;-6.87;50.24
45991;BME280;31721;41.740;-88.000;2023-02-24T10:44:20;100817.83;;;-6.85;50.22
45991;BME280;31721;41.740;-88.000;2023-02-24T10:46:59;100818.24;;;-7.01;49.85
45991;BME280;31721;41.740;-88.000;2023-02-24T10:49:26;100818.44;;;-7.10;50.21
45991;BME280;31721;41.740;-88.000;2023-02-24T10:51:56;100826.91;;;-7.35;50.52
45991;BME280;31721;41.740;-88.000;2023-02-24T10:54:26;100829.68;;;-7.54;50.53
45991;BME280;31721;41.740;-88.000;2023-02-24T10:56:54;100828.47;;;-7.93;50.96
45991;BME280;31721;41.740;-88.000;2023-02-24T10:59:22;100834.33;;;-8.04;51.24
45991;BME280;31721;41.740;-88.000;2023-02-24T11:01:53;100827.43;;;-7.75;51.18
45991;BME280;31721;41.740;-88.000;2023-02-24T11:04:31;100832.28;;;-7.46;50.98
45991;BME280;31721;41.740;-88.000;2023-02-24T11:07:06;100837.25;;;-7.93;50.85
45991;BME280;31721;41.740;-88.000;2023-02-24T11:09:38;100841.10;;;-7.61;50.59
45991;BME280;31721;41.740;-88.000;2023-02-24T11:12:13;100852.38;;;-7.46;50.54
45991;BME280;31721;41.740;-88.000;2023-02-24T11:14:49;100856.73;;;-7.50;50.40
45991;BME280;31721;41.740;-88.000;2023-02-24T11:17:20;100859.27;;;-7.76;50.50
45991;BME280;31721;41.740;-88.000;2023-02-24T11:19:54;100861.92;;;-7.79;50.66
45991;BME280;31721;41.740;-88.000;2023-02-24T11:22:30;100862.54;;;-7.77;50.86
45991;BME280;31721;41.740;-88.000;2023-02-24T11:25:04;100869.28;;;-7.80;50.68
45991;BME280;31721;41.740;-88.000;2023-02-24T11:27:33;100874.34;;;-7.53;50.80
45991;BME280;31721;41.740;-88.000;2023-02-24T11:30:12;100871.08;;;-7.56;50.85
45991;BME280;31721;41.740;-88.000;2023-02-24T11:32:55;100873.07;;;-7.50;50.66
45991;BME280;31721;41.740;-88.000;2023-02-24T11:35:32;100875.29;;;-7.39;50.67
45991;BME280;31721;41.740;-88.000;2023-02-24T11:38:07;100877.85;;;-7.39;50.67
45991;BME280;31721;41.740;-88.000;2023-02-24T11:40:41;100876.30;;;-7.39;50.56
45991;BME280;31721;41.740;-88.000;2023-02-24T11:43:14;100872.02;;;-7.60;50.73
45991;BME280;31721;41.740;-88.000;2023-02-24T11:45:46;100873.64;;;-7.57;50.68
45991;BME280;31721;41.740;-88.000;2023-02-24T11:48:18;100877.77;;;-7.66;50.69
45991;BME280;31721;41.740;-88.000;2023-02-24T11:50:50;100878.64;;;-7.42;50.81
45991;BME280;31721;41.740;-88.000;2023-02-24T11:53:25;100879.53;;;-7.52;50.74
45991;BME280;31721;41.740;-88.000;2023-02-24T11:55:59;100884.95;;;-7.53;50.69
45991;BME280;31721;41.740;-88.000;2023-02-24T11:58:33;100882.35;;;-7.61;50.71
45991;BME280;31721;41.740;-88.000;2023-02-24T12:01:08;100877.61;;;-7.37;50.49
45991;BME280;31721;41.740;-88.000;2023-02-24T12:03:43;100880.33;;;-7.44;50.37
45991;BME280;31721;41.740;-88.000;2023-02-24T12:06:20;100879.28;;;-7.55;50.51
45991;BME280;31721;41.740;-88.000;2023-02-24T12:08:54;100873.80;;;-7.48;50.72
45991;BME280;31721;41.740;-88.000;2023-02-24T12:11:32;100875.46;;;-7.66;50.84
45991;BME280;31721;41.740;-88.000;2023-02-24T12:14:13;100876.66;;;-7.84;50.73
45991;BME280;31721;41.740;-88.000;2023-02-24T12:16:45;100876.79;;;-7.71;50.82
45991;BME280;31721;41.740;-88.000;2023-02-24T12:19:17;100875.85;;;-7.46;50.86
45991;BME280;31721;41.740;-88.000;2023-02-24T12:21:52;100876.60;;;-7.98;51.03
45991;BME280;31721;41.740;-88.000;2023-02-24T12:24:22;100869.97;;;-7.72;51.00
45991;BME280;31721;41.740;-88.000;2023-02-24T12:26:59;100876.41;;;-7.77;50.96
45991;BME280;31721;41.740;-88.000;2023-02-24T12:29:50;100883.58;;;-7.85;50.96
45991;BME280;31721;41.740;-88.000;2023-02-24T12:32:29;100887.25;;;-8.32;51.35
45991;BME280;31721;41.740;-88.000;2023-02-24T12:35:09;100901.65;;;-8.42;51.62
45991;BME280;31721;41.740;-88.000;2023-02-24T12:37:50;100900.83;;;-8.12;51.22
45991;BME280;31721;41.740;-88.000;2023-02-24T12:40:29;100902.02;;;-8.19;51.52
45991;BME280;31721;41.740;-88.000;2023-02-24T12:43:12;100908.83;;;-8.10;51.11
45991;BME280;31721;41.740;-88.000;2023-02-24T12:45:50;100908.69;;;-8.46;51.79
45991;BME280;31721;41.740;-88.000;2023-02-24T12:48:31;100913.97;;;-8.57;51.62
45991;BME280;31721;41.740;-88.000;2023-02-24T12:51:06;100928.27;;;-9.01;53.12
45991;BME280;31721;41.740;-88.000;2023-02-24T12:53:40;100927.99;;;-8.52;52.01
45991;BME280;31721;41.740;-88.000;2023-02-24T12:56:16;100931.22;;;-8.54;51.97
45991;BME280;31721;41.740;-88.000;2023-02-24T12:58:49;100940.24;;;-8.55;52.42
45991;BME280;31721;41.740;-88.000;2023-02-24T13:01:23;100940.69;;;-8.38;52.10